createdAt,value
2023-01-31T00:01:25.529Z,5.50
2023-01-31T00:03:53.055Z,5.50
2023-01-31T00:06:26.772Z,5.60
2023-01-31T00:08:54.146Z,5.70
2023-01-31T00:11:22.412Z,5.90
2023-01-31T00:13:50.719Z,5.90
2023-01-31T00:16:17.947Z,5.90
2023-01-31T00:18:44.881Z,5.80
2023-01-31T00:21:12.942Z,5.80
2023-01-31T00:23:40.273Z,5.70
2023-01-31T00:26:09.635Z,5.60
2023-01-31T00:28:37.018Z,5.60
2023-01-31T00:31:04.579Z,5.50
2023-01-31T00:33:31.327Z,5.50
2023-01-31T00:36:00.316Z,5.40
2023-01-31T00:38:26.947Z,5.50
2023-01-31T00:40:53.981Z,5.40
2023-01-31T00:43:21.117Z,5.50
2023-01-31T00:45:47.758Z,5.40
2023-01-31T00:48:15.342Z,5.40
2023-01-31T00:50:42.162Z,5.40
2023-01-31T00:53:09.091Z,5.40
2023-01-31T00:55:35.811Z,5.40
2023-01-31T00:58:02.631Z,5.30
2023-01-31T01:00:29.544Z,5.20
2023-01-31T01:02:56.470Z,5.20
2023-01-31T01:05:23.209Z,5.20
2023-01-31T01:07:49.958Z,5.20
2023-01-31T01:10:16.749Z,5.20
2023-01-31T01:12:43.469Z,5.10
2023-01-31T01:15:14.047Z,5.10
2023-01-31T01:17:40.933Z,5.00
2023-01-31T01:20:08.566Z,5.00
2023-01-31T01:22:38.979Z,5.00
2023-01-31T01:25:06.268Z,5.00
2023-01-31T01:27:32.883Z,5.00
2023-01-31T01:30:00.189Z,5.00
2023-01-31T01:32:27.014Z,5.00
2023-01-31T01:34:53.870Z,5.00
2023-01-31T01:37:20.550Z,5.00
2023-01-31T01:39:47.726Z,5.00
2023-01-31T01:42:18.240Z,5.10
2023-01-31T01:44:46.724Z,5.10
2023-01-31T01:47:29.214Z,5.10
2023-01-31T01:50:16.225Z,5.10
2023-01-31T01:52:48.122Z,5.10
2023-01-31T01:55:34.663Z,5.00
2023-01-31T01:58:07.347Z,5.00
2023-01-31T02:00:35.025Z,5.00
2023-01-31T02:03:03.801Z,4.90
2023-01-31T02:05:32.375Z,4.90
2023-01-31T02:07:59.653Z,5.00
2023-01-31T02:10:31.927Z,4.90
2023-01-31T02:12:58.566Z,4.90
2023-01-31T02:15:29.411Z,4.90
2023-01-31T02:17:56.989Z,4.90
2023-01-31T02:20:24.090Z,4.90
2023-01-31T02:22:56.863Z,4.90
2023-01-31T02:25:33.860Z,4.80
2023-01-31T02:28:11.561Z,4.80
2023-01-31T02:30:47.875Z,4.80
2023-01-31T02:33:29.434Z,4.80
2023-01-31T02:36:03.927Z,4.80
2023-01-31T02:38:48.355Z,4.80
2023-01-31T02:41:19.212Z,4.80
2023-01-31T02:44:11.897Z,4.80
2023-01-31T02:46:53.855Z,4.80
2023-01-31T02:49:40.534Z,4.80
2023-01-31T02:52:30.223Z,4.80
2023-01-31T02:55:35.464Z,4.70
2023-01-31T02:58:03.605Z,4.80
2023-01-31T03:00:32.070Z,4.70
2023-01-31T03:02:58.710Z,4.70
2023-01-31T03:05:26.429Z,4.70
2023-01-31T03:07:55.106Z,4.80
2023-01-31T03:10:32.230Z,4.80
2023-01-31T03:13:01.927Z,4.80
2023-01-31T03:15:55.777Z,4.80
2023-01-31T03:18:25.233Z,4.90
2023-01-31T03:20:55.921Z,4.90
2023-01-31T03:23:31.118Z,4.90
2023-01-31T03:25:58.765Z,4.80
2023-01-31T03:28:28.887Z,4.80
2023-01-31T03:31:05.210Z,4.80
2023-01-31T03:33:32.062Z,4.80
2023-01-31T03:36:04.922Z,4.70
2023-01-31T03:38:34.573Z,4.70
2023-01-31T03:41:04.193Z,4.70
2023-01-31T03:43:37.400Z,4.70
2023-01-31T03:46:07.490Z,4.70
2023-01-31T03:48:36.909Z,4.70
2023-01-31T03:51:08.795Z,4.70
2023-01-31T03:53:39.209Z,4.70
2023-01-31T03:56:21.353Z,4.60
2023-01-31T03:58:50.820Z,4.60
2023-01-31T04:01:18.807Z,4.60
2023-01-31T04:03:48.038Z,4.60
2023-01-31T04:06:15.272Z,4.60
2023-01-31T04:08:43.522Z,4.50
2023-01-31T04:11:12.941Z,4.60
2023-01-31T04:13:39.780Z,4.60
2023-01-31T04:16:08.840Z,4.60
2023-01-31T04:18:37.728Z,4.60
2023-01-31T04:21:05.443Z,4.50
2023-01-31T04:23:32.267Z,4.60
2023-01-31T04:25:59.005Z,4.50
2023-01-31T04:28:27.186Z,4.60
2023-01-31T04:30:54.375Z,4.60
2023-01-31T04:33:21.705Z,4.70
2023-01-31T04:35:48.491Z,4.70
2023-01-31T04:38:15.531Z,4.70
2023-01-31T04:40:42.185Z,4.80
2023-01-31T04:43:09.278Z,4.90
2023-01-31T04:45:36.570Z,4.90
2023-01-31T04:48:04.089Z,4.90
2023-01-31T04:50:30.767Z,4.90
2023-01-31T04:52:57.457Z,4.90
2023-01-31T04:55:24.295Z,4.90
2023-01-31T04:57:50.921Z,4.90
2023-01-31T05:00:18.202Z,4.90
2023-01-31T05:02:45.962Z,4.80
2023-01-31T05:05:12.858Z,4.80
2023-01-31T05:07:39.941Z,4.90
2023-01-31T05:10:07.726Z,4.80
2023-01-31T05:12:36.289Z,4.80
2023-01-31T05:15:03.621Z,4.80
2023-01-31T05:17:30.503Z,4.80
2023-01-31T05:19:58.321Z,4.80
2023-01-31T05:22:26.101Z,4.80
2023-01-31T05:24:52.849Z,4.80
2023-01-31T05:27:19.670Z,4.80
2023-01-31T05:29:46.406Z,4.80
2023-01-31T05:32:14.508Z,4.90
2023-01-31T05:34:41.141Z,4.90
2023-01-31T05:37:07.894Z,4.80
2023-01-31T05:39:36.980Z,4.90
2023-01-31T05:42:03.741Z,5.00
2023-01-31T05:44:32.206Z,4.90
2023-01-31T05:47:01.412Z,5.00
2023-01-31T05:49:33.208Z,5.00
2023-01-31T05:52:00.790Z,5.00
2023-01-31T05:54:28.007Z,5.00
2023-01-31T05:56:54.695Z,5.10
2023-01-31T05:59:21.420Z,5.10
2023-01-31T06:01:48.204Z,5.10
2023-01-31T06:04:14.895Z,5.10
2023-01-31T06:06:42.392Z,5.10
2023-01-31T06:09:09.183Z,5.10
2023-01-31T06:11:35.944Z,5.10
2023-01-31T06:14:02.829Z,5.20
2023-01-31T06:16:29.557Z,5.20
2023-01-31T06:18:57.011Z,5.20
2023-01-31T06:21:23.759Z,5.20
2023-01-31T06:23:50.455Z,5.20
2023-01-31T06:26:17.279Z,5.20
2023-01-31T06:28:46.056Z,5.20
2023-01-31T06:31:13.030Z,5.20
2023-01-31T06:33:46.841Z,5.30
2023-01-31T06:36:16.027Z,5.30
2023-01-31T06:38:44.099Z,5.30
2023-01-31T06:41:10.811Z,5.30
2023-01-31T06:43:37.680Z,5.30
2023-01-31T06:46:04.509Z,5.30
2023-01-31T06:48:31.682Z,5.30
2023-01-31T06:50:58.398Z,5.40
2023-01-31T06:53:25.273Z,5.40
2023-01-31T06:55:52.034Z,5.40
2023-01-31T06:58:20.731Z,5.50
2023-01-31T07:00:47.987Z,5.50
2023-01-31T07:03:14.757Z,5.50
2023-01-31T07:05:41.454Z,5.50
2023-01-31T07:08:08.197Z,5.50
2023-01-31T07:10:35.021Z,5.50
2023-01-31T07:13:02.471Z,5.50
2023-01-31T07:15:30.619Z,5.50
2023-01-31T07:18:06.162Z,5.50
2023-01-31T07:20:33.009Z,5.60
2023-01-31T07:23:00.134Z,5.60
2023-01-31T07:25:27.348Z,5.70
2023-01-31T07:27:54.044Z,5.70
2023-01-31T07:30:20.764Z,5.70
2023-01-31T07:32:47.462Z,5.70
2023-01-31T07:35:14.274Z,5.70
2023-01-31T07:37:43.381Z,5.70
2023-01-31T07:40:11.139Z,5.70
2023-01-31T07:42:37.898Z,5.70
2023-01-31T07:45:21.972Z,5.70
2023-01-31T07:47:50.129Z,5.80
2023-01-31T07:50:17.136Z,5.80
2023-01-31T07:52:44.015Z,5.80
2023-01-31T07:55:10.723Z,5.90
2023-01-31T07:57:37.346Z,5.90
2023-01-31T08:00:24.195Z,5.90
2023-01-31T08:03:09.617Z,6.00
2023-01-31T08:05:36.341Z,6.00
2023-01-31T08:08:10.268Z,6.00
2023-01-31T08:10:37.386Z,6.00
2023-01-31T08:13:04.438Z,6.10
2023-01-31T08:15:31.080Z,6.10
2023-01-31T08:17:57.746Z,6.20
2023-01-31T08:20:24.508Z,6.20
2023-01-31T08:22:51.136Z,6.30
2023-01-31T08:25:19.653Z,6.30
2023-01-31T08:27:47.336Z,6.30
2023-01-31T08:30:14.056Z,6.40
2023-01-31T08:32:40.773Z,6.40
2023-01-31T08:35:07.661Z,6.40
2023-01-31T08:37:34.591Z,6.50
2023-01-31T08:40:04.031Z,6.50
2023-01-31T08:42:30.831Z,6.60
2023-01-31T08:44:57.394Z,6.60
2023-01-31T08:47:24.055Z,6.70
2023-01-31T08:49:55.323Z,6.70
2023-01-31T08:52:24.127Z,6.70
2023-01-31T08:54:50.887Z,6.70
2023-01-31T08:57:17.620Z,6.70
2023-01-31T08:59:44.220Z,6.80
2023-01-31T09:02:11.684Z,6.80
2023-01-31T09:04:40.499Z,6.80
2023-01-31T09:07:07.193Z,6.90
2023-01-31T09:09:33.963Z,6.90
2023-01-31T09:12:00.596Z,6.90
2023-01-31T09:14:27.343Z,6.90
2023-01-31T09:16:54.071Z,7.00
2023-01-31T09:19:22.575Z,6.90
2023-01-31T09:21:49.528Z,6.90
2023-01-31T09:24:16.268Z,6.90
2023-01-31T09:26:43.053Z,6.80
2023-01-31T09:29:09.788Z,6.80
2023-01-31T09:31:36.492Z,6.80
2023-01-31T09:34:03.189Z,6.80
2023-01-31T09:36:30.214Z,6.90
2023-01-31T09:38:57.269Z,6.90
2023-01-31T09:41:33.767Z,6.90
2023-01-31T09:44:04.031Z,7.00
2023-01-31T09:46:35.033Z,7.10
2023-01-31T09:49:08.011Z,7.20
2023-01-31T09:51:37.729Z,7.30
2023-01-31T09:54:08.218Z,7.30
2023-01-31T09:56:41.043Z,7.30
2023-01-31T09:59:14.910Z,7.30
2023-01-31T10:01:47.807Z,7.30
2023-01-31T10:04:32.912Z,7.50
2023-01-31T10:07:02.120Z,7.70
2023-01-31T10:09:33.111Z,8.00
2023-01-31T10:12:02.134Z,8.00
2023-01-31T10:14:50.276Z,8.00
2023-01-31T10:17:22.851Z,8.00
2023-01-31T10:20:09.355Z,8.00
2023-01-31T10:22:43.365Z,8.00
2023-01-31T10:25:19.179Z,8.00
2023-01-31T10:27:48.365Z,8.00
2023-01-31T10:30:17.357Z,8.10
2023-01-31T10:32:48.558Z,8.30
2023-01-31T10:35:15.294Z,8.60
2023-01-31T10:37:46.481Z,8.80
2023-01-31T10:40:18.413Z,9.00
2023-01-31T10:42:48.168Z,9.10
2023-01-31T10:45:22.946Z,9.00
2023-01-31T10:47:56.073Z,8.90
2023-01-31T10:50:25.499Z,8.80
2023-01-31T10:52:57.475Z,8.70
2023-01-31T10:55:31.762Z,8.70
2023-01-31T10:57:59.162Z,8.70
2023-01-31T11:00:28.270Z,8.70
2023-01-31T11:02:55.237Z,8.70
2023-01-31T11:05:24.760Z,8.70
2023-01-31T11:07:51.481Z,8.70
2023-01-31T11:10:26.077Z,8.80
2023-01-31T11:12:54.542Z,8.70
2023-01-31T11:15:23.221Z,9.00
2023-01-31T11:17:50.073Z,8.90
2023-01-31T11:20:23.906Z,9.00
2023-01-31T11:22:51.123Z,9.10
2023-01-31T11:25:22.360Z,9.20
2023-01-31T11:27:49.855Z,9.40
2023-01-31T11:30:27.826Z,9.50
2023-01-31T11:32:54.890Z,9.60
2023-01-31T11:35:24.281Z,9.70
2023-01-31T11:37:55.981Z,9.70
2023-01-31T11:40:27.645Z,9.70
2023-01-31T11:42:55.627Z,9.70
2023-01-31T11:45:27.157Z,9.60
2023-01-31T11:47:56.052Z,9.70
2023-01-31T11:50:33.776Z,9.60
2023-01-31T11:53:01.695Z,9.50
2023-01-31T11:55:35.534Z,9.50
2023-01-31T11:58:02.958Z,9.40
2023-01-31T12:00:32.674Z,9.30
2023-01-31T12:03:08.458Z,9.20
2023-01-31T12:05:43.541Z,9.20
2023-01-31T12:08:30.680Z,9.20
2023-01-31T12:10:57.797Z,9.20
2023-01-31T12:13:24.673Z,9.30
2023-01-31T12:15:59.854Z,9.40
2023-01-31T12:18:38.763Z,9.50
2023-01-31T12:21:15.065Z,9.50
2023-01-31T12:24:00.114Z,9.50
2023-01-31T12:26:34.839Z,9.50
2023-01-31T12:29:12.024Z,9.50
2023-01-31T12:31:46.187Z,9.50
2023-01-31T12:34:18.937Z,9.50
2023-01-31T12:37:04.498Z,9.60
2023-01-31T12:39:46.411Z,9.60
2023-01-31T12:42:42.573Z,9.60
2023-01-31T12:45:09.195Z,9.60
2023-01-31T12:47:41.813Z,9.60
2023-01-31T12:50:20.516Z,9.50
2023-01-31T12:52:56.493Z,9.50
2023-01-31T12:55:32.239Z,9.40
2023-01-31T12:58:20.042Z,9.30
2023-01-31T13:01:08.591Z,9.30
2023-01-31T13:03:37.466Z,9.30
2023-01-31T13:06:16.607Z,9.20
2023-01-31T13:09:12.024Z,9.20
2023-01-31T13:11:52.224Z,9.10
2023-01-31T13:14:23.726Z,9.20
2023-01-31T13:17:00.121Z,9.20
2023-01-31T13:19:50.194Z,9.20
2023-01-31T13:22:16.871Z,9.20
2023-01-31T13:24:45.129Z,9.10
2023-01-31T13:27:39.255Z,9.10
2023-01-31T13:30:11.682Z,9.10
2023-01-31T13:32:42.252Z,9.00
2023-01-31T13:35:09.098Z,9.00
2023-01-31T13:37:38.222Z,9.00
2023-01-31T13:40:17.193Z,9.00
2023-01-31T13:42:43.943Z,9.10
2023-01-31T13:45:19.950Z,9.10
2023-01-31T13:47:54.106Z,9.20
2023-01-31T13:50:33.120Z,9.20
2023-01-31T13:53:01.945Z,9.30
2023-01-31T13:55:42.575Z,9.30
2023-01-31T13:58:23.119Z,9.40
2023-01-31T14:00:58.952Z,9.40
2023-01-31T14:03:26.242Z,9.40
2023-01-31T14:05:53.005Z,9.50
2023-01-31T14:08:34.964Z,9.60
2023-01-31T14:11:25.129Z,9.70
2023-01-31T14:14:07.154Z,9.60
2023-01-31T14:16:36.920Z,9.60
2023-01-31T14:19:04.824Z,9.70
2023-01-31T14:21:33.781Z,9.70
2023-01-31T14:24:01.634Z,9.70
2023-01-31T14:26:38.631Z,9.70
2023-01-31T14:29:21.586Z,9.70
2023-01-31T14:31:48.981Z,9.70
2023-01-31T14:34:18.421Z,9.60
2023-01-31T14:37:09.084Z,9.60
2023-01-31T14:39:37.892Z,9.60
2023-01-31T14:42:27.858Z,9.60
2023-01-31T14:45:00.256Z,9.60
2023-01-31T14:47:29.222Z,9.60
2023-01-31T14:50:04.987Z,9.50
2023-01-31T14:52:38.633Z,9.50
2023-01-31T14:55:21.823Z,9.50
2023-01-31T14:57:50.163Z,9.40
2023-01-31T15:00:31.606Z,9.40
2023-01-31T15:03:01.505Z,9.40
2023-01-31T15:05:33.455Z,9.40
2023-01-31T15:08:23.396Z,9.50
2023-01-31T15:10:57.953Z,9.50
2023-01-31T15:13:46.911Z,9.60
2023-01-31T15:16:19.475Z,9.60
2023-01-31T15:18:47.748Z,9.60
2023-01-31T15:21:20.029Z,9.70
2023-01-31T15:23:47.660Z,9.70
2023-01-31T15:26:16.148Z,9.70
2023-01-31T15:28:43.646Z,9.60
2023-01-31T15:31:19.130Z,9.70
2023-01-31T15:33:49.276Z,9.70
2023-01-31T15:36:27.637Z,9.70
2023-01-31T15:38:56.856Z,9.70
2023-01-31T15:41:35.313Z,9.70
2023-01-31T15:44:11.224Z,9.70
2023-01-31T15:46:37.935Z,9.70
2023-01-31T15:49:32.772Z,9.70
2023-01-31T15:52:08.188Z,9.70
2023-01-31T15:54:35.376Z,9.60
2023-01-31T15:57:03.874Z,9.60
2023-01-31T15:59:33.358Z,9.60
2023-01-31T16:02:01.481Z,9.50
2023-01-31T16:04:28.917Z,9.50
2023-01-31T16:06:57.027Z,9.60
2023-01-31T16:09:26.044Z,9.60
2023-01-31T16:11:53.714Z,9.60
2023-01-31T16:14:23.772Z,9.50
2023-01-31T16:16:54.096Z,9.60
2023-01-31T16:19:29.962Z,9.60
2023-01-31T16:21:57.480Z,9.50
2023-01-31T16:24:24.378Z,9.50
2023-01-31T16:27:03.817Z,9.50
2023-01-31T16:29:43.795Z,9.50
2023-01-31T16:32:21.356Z,9.50
2023-01-31T16:34:56.822Z,9.50
2023-01-31T16:37:31.486Z,9.50
2023-01-31T16:40:19.669Z,9.50
2023-01-31T16:42:46.438Z,9.50
2023-01-31T16:45:42.220Z,9.50
2023-01-31T16:48:29.874Z,9.50
2023-01-31T16:50:58.683Z,9.50
2023-01-31T16:53:26.222Z,9.50
2023-01-31T16:56:21.648Z,9.60
2023-01-31T16:59:13.826Z,9.70
2023-01-31T17:01:43.461Z,9.60
2023-01-31T17:04:17.896Z,9.60
2023-01-31T17:06:47.463Z,9.70
2023-01-31T17:09:15.898Z,9.60
2023-01-31T17:11:43.964Z,9.60
2023-01-31T17:14:11.050Z,9.70
2023-01-31T17:16:37.757Z,9.60
2023-01-31T17:19:04.481Z,9.60
2023-01-31T17:21:32.972Z,9.50
2023-01-31T17:23:59.729Z,9.40
2023-01-31T17:26:35.783Z,9.30
2023-01-31T17:29:02.750Z,9.30
2023-01-31T17:31:31.329Z,9.10
2023-01-31T17:33:58.220Z,9.00
2023-01-31T17:36:25.043Z,8.90
2023-01-31T17:38:52.969Z,8.90
2023-01-31T17:41:20.802Z,8.80
2023-01-31T17:43:47.576Z,8.70
2023-01-31T17:46:15.102Z,8.60
2023-01-31T17:48:42.099Z,8.70
2023-01-31T17:51:09.220Z,8.70
2023-01-31T17:53:44.118Z,8.70
2023-01-31T17:56:16.403Z,8.60
2023-01-31T17:58:43.153Z,8.60
2023-01-31T18:01:10.691Z,8.50
2023-01-31T18:03:37.462Z,8.50
2023-01-31T18:06:05.138Z,8.50
2023-01-31T18:08:32.907Z,8.50
2023-01-31T18:11:09.024Z,8.40
2023-01-31T18:13:37.753Z,8.50
2023-01-31T18:16:14.487Z,8.50
2023-01-31T18:18:41.772Z,8.60
2023-01-31T18:21:09.468Z,8.50
2023-01-31T18:23:36.114Z,8.50
2023-01-31T18:26:06.635Z,8.40
2023-01-31T18:28:33.411Z,8.40
2023-01-31T18:31:03.783Z,8.30
2023-01-31T18:33:30.837Z,8.30
2023-01-31T18:35:58.274Z,8.30
2023-01-31T18:38:26.360Z,8.20
2023-01-31T18:40:53.362Z,8.10
2023-01-31T18:43:20.521Z,8.10
2023-01-31T18:45:47.419Z,8.10
2023-01-31T18:48:14.127Z,8.00
2023-01-31T18:50:40.864Z,8.00
2023-01-31T18:53:07.685Z,7.90
2023-01-31T18:55:34.328Z,7.90
2023-01-31T18:58:08.168Z,7.90
2023-01-31T19:00:34.945Z,7.90
2023-01-31T19:03:04.367Z,7.90
2023-01-31T19:05:31.115Z,7.80
2023-01-31T19:07:58.099Z,7.80
2023-01-31T19:10:24.812Z,7.80
2023-01-31T19:12:51.547Z,7.80
2023-01-31T19:15:18.183Z,7.80
2023-01-31T19:17:44.996Z,7.80
2023-01-31T19:20:12.056Z,7.70
2023-01-31T19:22:38.812Z,7.80
2023-01-31T19:25:08.982Z,7.70
2023-01-31T19:27:35.773Z,7.70
2023-01-31T19:30:02.574Z,7.60
2023-01-31T19:32:30.931Z,7.60
2023-01-31T19:35:01.956Z,7.60
2023-01-31T19:37:28.722Z,7.60
2023-01-31T19:39:55.382Z,7.50
2023-01-31T19:42:22.268Z,7.50
2023-01-31T19:44:48.907Z,7.60
2023-01-31T19:47:15.585Z,7.50
2023-01-31T19:49:42.239Z,7.70
2023-01-31T19:52:11.294Z,7.40
2023-01-31T19:54:38.458Z,7.40
2023-01-31T19:57:05.157Z,7.40
2023-01-31T19:59:33.495Z,7.40
2023-01-31T20:02:00.248Z,7.40
2023-01-31T20:04:26.857Z,7.50
2023-01-31T20:06:53.612Z,7.40
2023-01-31T20:09:20.433Z,7.40
2023-01-31T20:11:50.521Z,7.40
2023-01-31T20:14:19.324Z,7.40
2023-01-31T20:16:46.129Z,7.30
2023-01-31T20:19:12.890Z,7.30
2023-01-31T20:21:39.721Z,7.30
2023-01-31T20:24:06.655Z,7.30
2023-01-31T20:26:35.566Z,7.20
2023-01-31T20:29:04.587Z,7.20
2023-01-31T20:31:31.283Z,7.10
2023-01-31T20:33:58.010Z,7.10
2023-01-31T20:36:24.821Z,7.10
2023-01-31T20:38:51.560Z,7.10
2023-01-31T20:41:18.365Z,7.10
2023-01-31T20:43:45.041Z,7.10
2023-01-31T20:46:13.050Z,7.10
2023-01-31T20:48:40.463Z,7.10
2023-01-31T20:51:07.913Z,7.10
2023-01-31T20:53:34.781Z,7.20
2023-01-31T20:56:02.959Z,7.20
2023-01-31T20:58:31.346Z,7.10
2023-01-31T21:00:59.752Z,7.10
2023-01-31T21:03:28.597Z,7.10
2023-01-31T21:05:57.215Z,7.10
2023-01-31T21:08:23.906Z,7.30
2023-01-31T21:10:51.895Z,7.10
2023-01-31T21:13:18.935Z,7.10
2023-01-31T21:15:52.482Z,7.10
2023-01-31T21:18:19.544Z,7.10
2023-01-31T21:20:46.847Z,7.10
2023-01-31T21:23:13.820Z,7.10
2023-01-31T21:25:40.513Z,7.10
2023-01-31T21:28:09.910Z,7.10
2023-01-31T21:30:36.712Z,7.10
2023-01-31T21:33:03.532Z,7.10
2023-01-31T21:35:30.369Z,7.10
2023-01-31T21:37:57.126Z,7.00
2023-01-31T21:40:24.454Z,7.10
2023-01-31T21:42:52.011Z,7.00
2023-01-31T21:45:38.754Z,7.00
2023-01-31T21:48:27.915Z,7.00
2023-01-31T21:50:54.904Z,7.00
2023-01-31T21:53:21.980Z,7.10
2023-01-31T21:55:49.710Z,7.10
2023-01-31T21:58:20.107Z,7.00
2023-01-31T22:00:49.237Z,7.00
2023-01-31T22:03:21.359Z,7.00
2023-01-31T22:05:47.929Z,6.90
2023-01-31T22:08:14.530Z,6.80
2023-01-31T22:10:41.248Z,6.70
2023-01-31T22:13:07.985Z,6.90
2023-01-31T22:15:35.477Z,6.60
2023-01-31T22:18:02.298Z,6.60
2023-01-31T22:20:31.387Z,6.50
2023-01-31T22:23:00.463Z,6.50
2023-01-31T22:25:27.068Z,6.50
2023-01-31T22:27:54.413Z,6.50
2023-01-31T22:30:21.120Z,6.50
2023-01-31T22:32:48.234Z,6.50
2023-01-31T22:35:14.995Z,6.50
2023-01-31T22:37:41.592Z,6.50
2023-01-31T22:40:08.620Z,6.60
2023-01-31T22:42:35.331Z,6.70
2023-01-31T22:45:02.071Z,6.70
2023-01-31T22:47:28.946Z,6.60
2023-01-31T22:49:55.648Z,6.60
2023-01-31T22:52:22.343Z,6.50
2023-01-31T22:54:49.140Z,6.50
2023-01-31T22:57:16.210Z,6.50
2023-01-31T22:59:42.882Z,6.40
2023-01-31T23:02:09.532Z,6.40
2023-01-31T23:04:36.234Z,6.40
2023-01-31T23:07:03.026Z,6.40
2023-01-31T23:09:29.675Z,6.40
2023-01-31T23:11:56.380Z,6.40
2023-01-31T23:14:23.075Z,6.30
2023-01-31T23:17:08.291Z,6.30
2023-01-31T23:19:35.069Z,6.30
2023-01-31T23:22:01.858Z,6.30
2023-01-31T23:24:30.669Z,6.30
2023-01-31T23:26:57.625Z,6.30
2023-01-31T23:29:24.229Z,6.30
2023-01-31T23:31:50.966Z,6.30
2023-01-31T23:34:17.890Z,6.30
2023-01-31T23:36:44.621Z,6.30
2023-01-31T23:39:11.376Z,6.30
2023-01-31T23:41:38.062Z,6.40
2023-01-31T23:44:04.935Z,6.40
2023-01-31T23:46:33.162Z,6.40
2023-01-31T23:49:02.693Z,6.40
2023-01-31T23:51:33.529Z,6.40
2023-01-31T23:54:00.540Z,6.50
2023-01-31T23:56:27.513Z,6.50
2023-01-31T23:58:54.281Z,6.60
